Time;durP1;ratioP1;P1;durP2;ratioP2;P2;SDS_P1;SDS_P2;PMS_P1;PMS_P2;Temp;Humidity;BMP_temperature;BMP_pressure;BME280_temperature;BME280_humidity;BME280_pressure;Samples;Min_cycle;Max_cycle;Signal;HPM_P1;HPM_P2
2024/04/06 00:01:15;;;;;;;0.20;0.10;;;;;;;;;;5129738;27;20193;-64
2024/04/06 00:03:41;;;;;;;0.20;0.10;;;;;;;;;;5127919;27;20283;-68
2024/04/06 00:06:07;;;;;;;0.20;0.10;;;;;;;;;;5131970;27;20205;-64
2024/04/06 00:08:33;;;;;;;0.20;0.10;;;;;;;;;;5132773;27;20212;-64
2024/04/06 00:10:59;;;;;;;0.20;0.00;;;;;;;;;;5132973;27;20681;-64
2024/04/06 00:13:25;;;;;;;0.20;0.10;;;;;;;;;;5131328;27;20275;-64
2024/04/06 00:15:51;;;;;;;0.20;0.10;;;;;;;;;;5140363;27;20257;-64
2024/04/06 00:18:17;;;;;;;0.20;0.10;;;;;;;;;;5137702;27;20196;-65
2024/04/06 00:20:43;;;;;;;0.20;0.10;;;;;;;;;;5132811;27;20184;-65
2024/04/06 00:23:09;;;;;;;0.20;0.10;;;;;;;;;;5132078;27;20291;-65
2024/04/06 00:25:35;;;;;;;0.20;0.10;;;;;;;;;;5132187;27;20253;-65
2024/04/06 00:28:01;;;;;;;0.20;0.10;;;;;;;;;;5132704;27;21250;-66
2024/04/06 00:30:27;;;;;;;0.20;0.10;;;;;;;;;;5114182;27;20173;-65
2024/04/06 00:32:53;;;;;;;0.20;0.10;;;;;;;;;;5131918;27;20276;-65
2024/04/06 00:35:19;;;;;;;0.20;0.10;;;;;;;;;;5125386;27;20260;-67
2024/04/06 00:37:45;;;;;;;0.20;0.10;;;;;;;;;;5130772;27;20255;-67
2024/04/06 00:40:11;;;;;;;0.20;0.03;;;;;;;;;;5132549;27;20172;-67
2024/04/06 00:42:37;;;;;;;0.20;0.10;;;;;;;;;;5132170;27;20200;-65
2024/04/06 00:45:03;;;;;;;0.20;0.10;;;;;;;;;;5113868;27;20223;-65
2024/04/06 00:47:29;;;;;;;0.20;0.10;;;;;;;;;;5131971;27;20252;-65
2024/04/06 00:49:55;;;;;;;0.20;0.10;;;;;;;;;;5131961;27;20276;-65
2024/04/06 00:52:21;;;;;;;0.20;0.08;;;;;;;;;;5131591;27;20219;-65
2024/04/06 00:54:47;;;;;;;0.20;0.10;;;;;;;;;;5131968;27;20735;-65
2024/04/06 00:57:13;;;;;;;0.20;0.10;;;;;;;;;;5130449;27;20250;-65
2024/04/06 00:59:39;;;;;;;0.20;0.10;;;;;;;;;;5133451;27;20184;-65
2024/04/06 01:02:06;;;;;;;0.20;0.10;;;;;;;;;;5131752;27;20617;-65
2024/04/06 01:04:32;;;;;;;0.20;0.10;;;;;;;;;;5131457;27;20200;-65
2024/04/06 01:06:58;;;;;;;0.20;0.10;;;;;;;;;;5128410;27;20302;-64
2024/04/06 01:09:24;;;;;;;0.20;0.10;;;;;;;;;;5128214;27;20176;-64
2024/04/06 01:11:50;;;;;;;0.20;0.05;;;;;;;;;;5132545;27;20188;-66
2024/04/06 01:14:17;;;;;;;0.20;0.10;;;;;;;;;;5128362;27;20264;-67
2024/04/06 01:16:44;;;;;;;0.20;0.10;;;;;;;;;;5138124;27;20221;-66
2024/04/06 01:19:10;;;;;;;0.20;0.10;;;;;;;;;;5136670;27;20184;-65
2024/04/06 01:21:36;;;;;;;0.20;0.10;;;;;;;;;;5134549;27;20188;-64
2024/04/06 01:24:03;;;;;;;0.20;0.10;;;;;;;;;;5131070;27;20551;-65
2024/04/06 01:26:30;;;;;;;0.20;0.10;;;;;;;;;;5131307;27;20181;-65
2024/04/06 01:28:56;;;;;;;0.20;0.10;;;;;;;;;;5137529;27;20545;-66
2024/04/06 01:31:22;;;;;;;0.20;0.10;;;;;;;;;;5119612;27;20189;-65
2024/04/06 01:33:51;;;;;;;0.20;0.10;;;;;;;;;;5127835;27;20184;-63
2024/04/06 01:36:17;;;;;;;0.20;0.10;;;;;;;;;;5128747;27;20184;-65
2024/04/06 01:38:43;;;;;;;0.20;0.10;;;;;;;;;;5131170;27;20252;-65
2024/04/06 01:41:09;;;;;;;0.20;0.10;;;;;;;;;;5130977;27;20707;-63
2024/04/06 01:43:35;;;;;;;0.20;0.10;;;;;;;;;;5127666;27;20208;-65
2024/04/06 01:46:01;;;;;;;0.20;0.10;;;;;;;;;;5126478;27;20230;-65
2024/04/06 01:48:27;;;;;;;0.20;0.10;;;;;;;;;;5125743;27;20179;-67
2024/04/06 01:50:53;;;;;;;0.20;0.00;;;;;;;;;;5133827;27;20172;-65
2024/04/06 01:53:19;;;;;;;0.20;0.10;;;;;;;;;;5130089;27;20682;-65
2024/04/06 01:55:45;;;;;;;0.20;0.10;;;;;;;;;;5131551;27;20203;-65
2024/04/06 01:58:11;;;;;;;0.20;0.10;;;;;;;;;;5126660;27;20238;-65
2024/04/06 02:00:36;;;;;;;0.20;0.10;;;;;;;;;;5130878;27;20180;-65
2024/04/06 02:03:04;;;;;;;0.20;0.10;;;;;;;;;;5130601;27;20614;-65
2024/04/06 02:05:30;;;;;;;0.20;0.10;;;;;;;;;;5127209;27;20180;-65
2024/04/06 02:07:56;;;;;;;0.20;0.10;;;;;;;;;;5130532;27;20180;-64
2024/04/06 02:10:22;;;;;;;0.20;0.10;;;;;;;;;;5130950;27;20176;-64
2024/04/06 02:12:50;;;;;;;0.20;0.10;;;;;;;;;;5112242;27;20244;-64
2024/04/06 02:15:16;;;;;;;0.20;0.05;;;;;;;;;;5129659;27;20172;-65
2024/04/06 02:17:42;;;;;;;0.20;0.10;;;;;;;;;;5130297;27;20195;-66
2024/04/06 02:20:09;;;;;;;0.20;0.10;;;;;;;;;;5113196;27;20539;-66
2024/04/06 02:22:35;;;;;;;0.20;0.10;;;;;;;;;;5143468;27;20222;-67
2024/04/06 02:25:03;;;;;;;0.20;0.10;;;;;;;;;;5112099;27;20210;-65
2024/04/06 02:27:29;;;;;;;0.20;0.10;;;;;;;;;;5117584;27;20169;-64
2024/04/06 02:29:55;;;;;;;0.20;0.10;;;;;;;;;;5130735;27;20593;-65
2024/04/06 02:32:21;;;;;;;0.20;0.10;;;;;;;;;;5130473;27;20196;-64
2024/04/06 02:34:47;;;;;;;0.20;0.10;;;;;;;;;;5130378;27;20527;-65
2024/04/06 02:37:13;;;;;;;0.20;0.10;;;;;;;;;;5112047;27;20745;-66
2024/04/06 02:39:39;;;;;;;0.20;0.10;;;;;;;;;;5130383;27;20173;-66
2024/04/06 02:42:05;;;;;;;0.20;0.10;;;;;;;;;;5129391;27;20945;-65
2024/04/06 02:44:31;;;;;;;0.20;0.10;;;;;;;;;;5130136;27;20239;-64
2024/04/06 02:46:58;;;;;;;0.20;0.10;;;;;;;;;;5130058;27;20169;-65
2024/04/06 02:49:24;;;;;;;0.20;0.10;;;;;;;;;;5126923;27;20183;-67
2024/04/06 02:51:49;;;;;;;0.20;0.10;;;;;;;;;;5128652;27;20200;-66
2024/04/06 02:54:15;;;;;;;0.20;0.10;;;;;;;;;;5130798;27;20207;-65
2024/04/06 02:56:41;;;;;;;0.20;0.10;;;;;;;;;;5129956;27;20663;-65
2024/04/06 02:59:07;;;;;;;0.20;0.00;;;;;;;;;;5130259;27;20196;-65
2024/04/06 03:01:33;;;;;;;0.20;0.10;;;;;;;;;;5130731;27;20205;-65
2024/04/06 03:03:59;;;;;;;0.20;0.10;;;;;;;;;;5130184;27;20232;-65
2024/04/06 03:06:26;;;;;;;0.20;0.10;;;;;;;;;;5129999;27;20164;-65
2024/04/06 03:08:52;;;;;;;0.20;0.10;;;;;;;;;;5129504;27;20161;-65
2024/04/06 03:11:19;;;;;;;0.20;0.10;;;;;;;;;;5130476;27;20177;-65
2024/04/06 03:13:45;;;;;;;0.20;0.10;;;;;;;;;;5129952;27;20214;-65
2024/04/06 03:16:11;;;;;;;0.20;0.10;;;;;;;;;;5129728;27;20244;-65
2024/04/06 03:18:37;;;;;;;0.20;0.10;;;;;;;;;;5129824;27;20181;-64
2024/04/06 03:21:04;;;;;;;0.20;0.10;;;;;;;;;;5129569;27;20199;-66
2024/04/06 03:23:30;;;;;;;0.20;0.10;;;;;;;;;;5125360;27;20209;-65
2024/04/06 03:25:57;;;;;;;0.20;0.10;;;;;;;;;;5132010;27;20238;-68
2024/04/06 03:28:23;;;;;;;0.20;0.10;;;;;;;;;;5126098;27;20168;-65
2024/04/06 03:30:49;;;;;;;0.20;0.10;;;;;;;;;;5131322;27;20169;-65
2024/04/06 03:33:15;;;;;;;0.20;0.10;;;;;;;;;;5129149;27;20192;-66
2024/04/06 03:35:41;;;;;;;0.20;0.10;;;;;;;;;;5121330;27;20261;-65
2024/04/06 03:38:07;;;;;;;0.20;0.10;;;;;;;;;;5132171;27;20180;-64
2024/04/06 03:40:33;;;;;;;0.20;0.10;;;;;;;;;;5133463;27;20240;-65
2024/04/06 03:43:00;;;;;;;0.20;0.10;;;;;;;;;;5133071;27;20284;-65
2024/04/06 03:45:26;;;;;;;0.20;0.10;;;;;;;;;;5137184;27;20559;-65
2024/04/06 03:47:53;;;;;;;0.20;0.10;;;;;;;;;;5130507;27;20180;-65
2024/04/06 03:50:20;;;;;;;0.20;0.10;;;;;;;;;;5132059;27;20165;-65
2024/04/06 03:52:46;;;;;;;0.20;0.10;;;;;;;;;;5132510;27;20208;-65
2024/04/06 03:55:12;;;;;;;0.20;0.10;;;;;;;;;;5132808;27;20181;-65
2024/04/06 03:57:38;;;;;;;0.20;0.10;;;;;;;;;;5129173;27;20173;-67
2024/04/06 04:00:09;;;;;;;0.20;0.00;;;;;;;;;;5126324;27;20276;-67
2024/04/06 04:02:39;;;;;;;0.20;0.10;;;;;;;;;;5132897;27;20211;-67
2024/04/06 04:05:05;;;;;;;0.20;0.10;;;;;;;;;;5131598;27;20201;-67
2024/04/06 04:07:32;;;;;;;0.20;0.00;;;;;;;;;;5133259;27;20256;-66
2024/04/06 04:10:01;;;;;;;0.20;0.10;;;;;;;;;;5133080;27;20177;-67
2024/04/06 04:12:27;;;;;;;0.20;0.10;;;;;;;;;;5132206;27;20185;-66
2024/04/06 04:14:53;;;;;;;0.20;0.10;;;;;;;;;;5132902;27;20172;-64
2024/04/06 04:17:19;;;;;;;0.20;0.10;;;;;;;;;;5133684;27;20613;-63
2024/04/06 04:19:45;;;;;;;0.20;0.10;;;;;;;;;;5126356;27;20184;-65
2024/04/06 04:22:11;;;;;;;0.20;0.10;;;;;;;;;;5131952;27;20642;-65
2024/04/06 04:24:37;;;;;;;0.20;0.10;;;;;;;;;;5132851;27;20284;-65
2024/04/06 04:27:03;;;;;;;0.20;0.10;;;;;;;;;;5126366;27;20818;-65
2024/04/06 04:29:29;;;;;;;0.20;0.10;;;;;;;;;;5137751;27;20176;-64
2024/04/06 04:31:55;;;;;;;0.20;0.10;;;;;;;;;;5141158;27;20207;-65
2024/04/06 04:34:21;;;;;;;0.20;0.10;;;;;;;;;;5132816;27;20660;-65
2024/04/06 04:36:47;;;;;;;0.20;0.10;;;;;;;;;;5128684;27;20177;-66
2024/04/06 04:39:13;;;;;;;0.20;0.10;;;;;;;;;;5131307;27;20188;-65
2024/04/06 04:41:39;;;;;;;0.20;0.10;;;;;;;;;;5132443;27;20201;-63
2024/04/06 04:44:07;;;;;;;0.20;0.10;;;;;;;;;;5132011;27;20595;-65
2024/04/06 04:46:33;;;;;;;0.20;0.10;;;;;;;;;;5132306;27;20176;-65
2024/04/06 04:49:02;;;;;;;0.20;0.10;;;;;;;;;;5130800;27;20180;-65
2024/04/06 04:51:28;;;;;;;0.20;0.10;;;;;;;;;;5131997;27;20179;-64
2024/04/06 04:53:54;;;;;;;0.20;0.10;;;;;;;;;;5130878;27;20172;-65
2024/04/06 04:56:20;;;;;;;0.20;0.10;;;;;;;;;;5131194;27;20181;-64
2024/04/06 04:58:47;;;;;;;0.20;0.10;;;;;;;;;;5131751;27;20172;-66
2024/04/06 05:01:13;;;;;;;0.20;0.10;;;;;;;;;;5131858;27;20556;-66
2024/04/06 05:03:39;;;;;;;0.20;0.10;;;;;;;;;;5130790;27;20557;-65
2024/04/06 05:06:06;;;;;;;0.20;0.10;;;;;;;;;;5130410;27;20188;-65
2024/04/06 05:08:32;;;;;;;0.20;0.10;;;;;;;;;;5130804;27;20573;-64
2024/04/06 05:10:58;;;;;;;0.20;0.10;;;;;;;;;;5124829;27;20237;-67
2024/04/06 05:13:24;;;;;;;0.20;0.10;;;;;;;;;;5129374;27;20193;-65
2024/04/06 05:15:50;;;;;;;0.20;0.10;;;;;;;;;;5123671;27;20189;-65
2024/04/06 05:18:18;;;;;;;0.20;0.10;;;;;;;;;;5128477;27;20272;-64
2024/04/06 05:20:51;;;;;;;0.20;0.10;;;;;;;;;;5128069;27;20264;-64
2024/04/06 05:23:18;;;;;;;0.20;0.10;;;;;;;;;;5122581;27;20714;-64
2024/04/06 05:25:44;;;;;;;0.20;0.10;;;;;;;;;;5129524;27;20180;-65
2024/04/06 05:28:10;;;;;;;0.20;0.10;;;;;;;;;;5125127;27;20181;-67
2024/04/06 05:30:36;;;;;;;0.20;0.10;;;;;;;;;;5128986;27;20249;-67
2024/04/06 05:33:02;;;;;;;0.20;0.10;;;;;;;;;;5131267;27;20197;-66
2024/04/06 05:35:28;;;;;;;0.20;0.10;;;;;;;;;;5140451;27;20176;-67
2024/04/06 05:37:54;;;;;;;0.20;0.10;;;;;;;;;;5114703;27;20173;-65
2024/04/06 05:40:20;;;;;;;0.20;0.10;;;;;;;;;;5131536;27;20723;-65
2024/04/06 05:42:46;;;;;;;0.20;0.08;;;;;;;;;;5131326;27;20185;-65
2024/04/06 05:45:12;;;;;;;0.20;0.10;;;;;;;;;;5132788;27;20212;-66
2024/04/06 05:47:38;;;;;;;0.20;0.10;;;;;;;;;;5124728;27;20177;-67
2024/04/06 05:50:05;;;;;;;0.20;0.10;;;;;;;;;;5128585;27;20177;-64
2024/04/06 05:52:31;;;;;;;0.20;0.10;;;;;;;;;;5130517;27;20184;-66
2024/04/06 05:54:59;;;;;;;0.20;0.10;;;;;;;;;;5129132;27;20861;-66
2024/04/06 05:57:25;;;;;;;0.20;0.10;;;;;;;;;;5130985;27;20242;-69
2024/04/06 05:59:51;;;;;;;0.20;0.10;;;;;;;;;;5112047;27;20185;-69
2024/04/06 06:02:17;;;;;;;0.20;0.10;;;;;;;;;;5128772;27;20832;-67
2024/04/06 06:04:43;;;;;;;0.20;0.10;;;;;;;;;;5130709;27;20204;-67
2024/04/06 06:07:09;;;;;;;0.20;0.10;;;;;;;;;;5129479;27;20216;-68
2024/04/06 06:09:35;;;;;;;0.20;0.10;;;;;;;;;;5130660;27;20181;-68
2024/04/06 06:12:01;;;;;;;0.20;0.10;;;;;;;;;;5129783;27;20213;-68
2024/04/06 06:14:29;;;;;;;0.20;0.10;;;;;;;;;;5130148;27;20172;-66
2024/04/06 06:16:55;;;;;;;0.20;0.10;;;;;;;;;;5132889;27;20627;-67
2024/04/06 06:19:21;;;;;;;0.20;0.10;;;;;;;;;;5131360;27;20177;-65
2024/04/06 06:21:47;;;;;;;0.20;0.10;;;;;;;;;;5129265;27;20305;-66
2024/04/06 06:24:13;;;;;;;0.20;0.10;;;;;;;;;;5123496;27;20257;-66
2024/04/06 06:26:39;;;;;;;0.20;0.10;;;;;;;;;;5104326;28;20172;-66
2024/04/06 06:29:05;;;;;;;0.20;0.10;;;;;;;;;;5125871;27;20224;-66
2024/04/06 06:31:31;;;;;;;0.20;0.10;;;;;;;;;;5124991;27;20240;-66
2024/04/06 06:33:57;;;;;;;0.20;0.10;;;;;;;;;;5126906;27;20237;-66
2024/04/06 06:36:23;;;;;;;0.20;0.10;;;;;;;;;;5127823;27;20188;-66
2024/04/06 06:38:49;;;;;;;0.20;0.10;;;;;;;;;;5128135;27;20229;-66
2024/04/06 06:41:16;;;;;;;0.20;0.10;;;;;;;;;;5125375;27;20185;-66
2024/04/06 06:43:42;;;;;;;0.20;0.10;;;;;;;;;;5128833;27;20572;-66
2024/04/06 06:46:08;;;;;;;0.20;0.10;;;;;;;;;;5109922;27;20541;-65
2024/04/06 06:48:34;;;;;;;0.20;0.10;;;;;;;;;;5130078;27;20265;-66
2024/04/06 06:51:00;;;;;;;0.20;0.10;;;;;;;;;;5128835;27;20177;-65
2024/04/06 06:53:26;;;;;;;0.20;0.10;;;;;;;;;;5130611;27;20242;-66
2024/04/06 06:55:52;;;;;;;0.20;0.10;;;;;;;;;;5128070;27;20193;-66
2024/04/06 06:58:18;;;;;;;0.20;0.10;;;;;;;;;;5130887;27;20196;-66
2024/04/06 07:00:47;;;;;;;0.20;0.10;;;;;;;;;;5126382;27;20209;-68
2024/04/06 07:03:13;;;;;;;0.20;0.10;;;;;;;;;;5128609;27;20264;-66
2024/04/06 07:05:40;;;;;;;0.20;0.10;;;;;;;;;;5132852;27;21162;-67
2024/04/06 07:08:06;;;;;;;0.20;0.10;;;;;;;;;;5130072;27;20751;-68
2024/04/06 07:10:39;;;;;;;0.20;0.10;;;;;;;;;;5112188;27;20176;-68
2024/04/06 07:13:05;;;;;;;0.20;0.10;;;;;;;;;;5114224;27;20684;-66
2024/04/06 07:15:32;;;;;;;0.20;0.10;;;;;;;;;;5135837;27;20181;-68
2024/04/06 07:17:58;;;;;;;0.20;0.10;;;;;;;;;;5136133;27;20189;-68
2024/04/06 07:20:24;;;;;;;0.20;0.10;;;;;;;;;;5130256;27;20184;-67
2024/04/06 07:22:50;;;;;;;0.20;0.10;;;;;;;;;;5132556;27;20293;-69
2024/04/06 07:25:16;;;;;;;0.20;0.10;;;;;;;;;;5130072;27;20227;-67
2024/04/06 07:27:42;;;;;;;0.20;0.10;;;;;;;;;;5131304;27;20572;-68
2024/04/06 07:30:08;;;;;;;0.20;0.10;;;;;;;;;;5127928;27;20263;-69
2024/04/06 07:32:34;;;;;;;0.20;0.10;;;;;;;;;;5134391;27;20271;-69
2024/04/06 07:35:02;;;;;;;0.20;0.10;;;;;;;;;;5134250;27;20256;-71
2024/04/06 07:37:28;;;;;;;0.20;0.10;;;;;;;;;;5134052;27;20176;-71
2024/04/06 07:39:54;;;;;;;0.20;0.10;;;;;;;;;;5133232;27;20177;-69
2024/04/06 07:42:20;;;;;;;0.20;0.10;;;;;;;;;;5140442;27;20245;-68
2024/04/06 07:44:46;;;;;;;0.20;0.10;;;;;;;;;;5140812;27;20205;-66
2024/04/06 07:47:12;;;;;;;0.20;0.10;;;;;;;;;;5133369;27;20181;-68
2024/04/06 07:49:38;;;;;;;0.20;0.10;;;;;;;;;;5133011;27;20529;-67
2024/04/06 07:52:04;;;;;;;0.20;0.10;;;;;;;;;;5132724;27;20199;-68
2024/04/06 07:54:30;;;;;;;0.20;0.10;;;;;;;;;;5133701;27;20188;-69
2024/04/06 07:56:56;;;;;;;0.20;0.00;;;;;;;;;;5137440;27;20181;-69
2024/04/06 07:59:22;;;;;;;0.20;0.10;;;;;;;;;;5133360;27;20210;-66
2024/04/06 08:01:48;;;;;;;0.20;0.10;;;;;;;;;;5132974;27;20201;-67
2024/04/06 08:04:14;;;;;;;0.20;0.00;;;;;;;;;;5133158;27;20256;-67
2024/04/06 08:06:40;;;;;;;0.20;0.10;;;;;;;;;;5133387;27;20422;-67
2024/04/06 08:09:06;;;;;;;0.20;0.10;;;;;;;;;;5133047;27;20181;-67
2024/04/06 08:11:32;;;;;;;0.20;0.10;;;;;;;;;;5133641;27;20219;-66
2024/04/06 08:13:58;;;;;;;0.20;0.08;;;;;;;;;;5129575;27;20206;-65
2024/04/06 08:16:24;;;;;;;0.20;0.10;;;;;;;;;;5130449;27;20173;-66
2024/04/06 08:18:50;;;;;;;0.20;0.10;;;;;;;;;;5129417;27;20252;-67
2024/04/06 08:21:16;;;;;;;0.20;0.10;;;;;;;;;;5126827;27;20338;-66
2024/04/06 08:23:41;;;;;;;0.20;0.10;;;;;;;;;;5130514;27;20242;-66
2024/04/06 08:26:07;;;;;;;0.20;0.10;;;;;;;;;;5131200;27;20230;-67
2024/04/06 08:28:33;;;;;;;0.20;0.10;;;;;;;;;;5128263;27;20171;-66
2024/04/06 08:30:59;;;;;;;0.20;0.10;;;;;;;;;;5129409;27;20552;-67
2024/04/06 08:33:25;;;;;;;0.20;0.10;;;;;;;;;;5114036;27;20228;-66
2024/04/06 08:35:58;;;;;;;0.20;0.10;;;;;;;;;;5132204;27;20335;-66
2024/04/06 08:38:24;;;;;;;0.20;0.10;;;;;;;;;;5131927;27;20640;-66
2024/04/06 08:40:52;;;;;;;0.20;0.10;;;;;;;;;;5132483;27;20165;-66
2024/04/06 08:43:18;;;;;;;0.20;0.10;;;;;;;;;;5131859;27;20200;-67
2024/04/06 08:45:44;;;;;;;0.20;0.10;;;;;;;;;;5111120;27;20562;-66
2024/04/06 08:48:12;;;;;;;0.20;0.05;;;;;;;;;;5143937;27;20181;-67
2024/04/06 08:50:38;;;;;;;0.20;0.10;;;;;;;;;;5119955;27;20591;-67
2024/04/06 08:53:05;;;;;;;0.20;0.10;;;;;;;;;;5128521;27;20196;-68
2024/04/06 08:55:32;;;;;;;0.20;0.10;;;;;;;;;;5126159;27;20184;-69
2024/04/06 08:57:58;;;;;;;0.20;0.10;;;;;;;;;;5132205;27;20176;-68
2024/04/06 09:00:26;;;;;;;0.20;0.10;;;;;;;;;;5131966;27;20183;-69
2024/04/06 09:02:52;;;;;;;0.20;0.10;;;;;;;;;;5133870;27;20200;-69
2024/04/06 09:05:18;;;;;;;0.20;0.10;;;;;;;;;;5132908;27;20211;-68
2024/04/06 09:07:47;;;;;;;0.20;0.10;;;;;;;;;;5131480;27;20659;-69
2024/04/06 09:10:13;;;;;;;0.20;0.10;;;;;;;;;;5132005;27;20177;-70
2024/04/06 09:12:40;;;;;;;0.20;0.10;;;;;;;;;;5131382;27;20196;-69
2024/04/06 09:15:06;;;;;;;0.20;0.10;;;;;;;;;;5132224;27;20192;-71
2024/04/06 09:17:33;;;;;;;0.20;0.10;;;;;;;;;;5132128;27;20183;-68
2024/04/06 09:19:58;;;;;;;0.20;0.10;;;;;;;;;;5132286;27;20203;-71
2024/04/06 09:22:25;;;;;;;0.20;0.10;;;;;;;;;;5131230;27;20713;-68
2024/04/06 09:24:54;;;;;;;0.20;0.10;;;;;;;;;;5130883;27;20193;-67
2024/04/06 09:27:20;;;;;;;0.20;0.10;;;;;;;;;;5131124;27;21077;-68
2024/04/06 09:29:47;;;;;;;0.20;0.10;;;;;;;;;;5130564;27;20572;-68
2024/04/06 09:32:16;;;;;;;0.20;0.10;;;;;;;;;;5131511;27;20672;-66
2024/04/06 09:34:51;;;;;;;0.20;0.10;;;;;;;;;;5131306;27;20267;-66
2024/04/06 09:37:24;;;;;;;0.20;0.10;;;;;;;;;;5130964;27;20169;-66
2024/04/06 09:39:50;;;;;;;0.20;0.10;;;;;;;;;;5130477;27;20168;-67
2024/04/06 09:42:17;;;;;;;0.20;0.10;;;;;;;;;;5130581;27;20329;-65
2024/04/06 09:44:43;;;;;;;0.20;0.10;;;;;;;;;;5130144;27;20203;-66
2024/04/06 09:47:11;;;;;;;0.20;0.10;;;;;;;;;;5128901;27;20181;-66
2024/04/06 09:49:39;;;;;;;0.20;0.10;;;;;;;;;;5137423;27;20178;-68
2024/04/06 09:52:05;;;;;;;0.20;0.10;;;;;;;;;;5139943;27;20664;-68
2024/04/06 09:54:31;;;;;;;0.20;0.10;;;;;;;;;;5130406;27;20180;-67
2024/04/06 09:56:58;;;;;;;0.20;0.10;;;;;;;;;;5130307;27;20208;-69
2024/04/06 09:59:27;;;;;;;0.20;0.10;;;;;;;;;;5130233;27;20241;-70
2024/04/06 10:01:54;;;;;;;0.20;0.10;;;;;;;;;;5130046;27;20287;-68
2024/04/06 10:04:28;;;;;;;0.20;0.08;;;;;;;;;;5126615;27;20207;-68
2024/04/06 10:06:55;;;;;;;0.20;0.10;;;;;;;;;;5123040;27;20635;-67
2024/04/06 10:09:21;;;;;;;0.20;0.10;;;;;;;;;;5130182;27;20190;-69
2024/04/06 10:11:47;;;;;;;0.20;0.10;;;;;;;;;;5112297;27;20208;-68
2024/04/06 10:14:13;;;;;;;0.20;0.10;;;;;;;;;;5131019;27;20181;-65
2024/04/06 10:16:39;;;;;;;0.20;0.10;;;;;;;;;;5130086;27;20184;-66
2024/04/06 10:19:07;;;;;;;0.20;0.10;;;;;;;;;;5132117;27;20183;-65
2024/04/06 10:21:34;;;;;;;0.20;0.10;;;;;;;;;;5125463;27;20276;-66
2024/04/06 10:24:10;;;;;;;0.20;0.10;;;;;;;;;;5129588;27;20227;-66
2024/04/06 10:26:36;;;;;;;0.20;0.10;;;;;;;;;;5114864;27;20588;-65
2024/04/06 10:29:03;;;;;;;0.20;0.10;;;;;;;;;;5130826;27;21704;-65
2024/04/06 10:31:29;;;;;;;0.20;0.10;;;;;;;;;;5130058;27;20176;-66
2024/04/06 10:33:54;;;;;;;0.20;0.10;;;;;;;;;;5124570;27;20181;-68
2024/04/06 10:36:21;;;;;;;0.20;0.17;;;;;;;;;;5125787;27;20566;-66
2024/04/06 10:38:47;;;;;;;0.20;0.10;;;;;;;;;;5106551;27;20604;-66
2024/04/06 10:41:13;;;;;;;0.20;0.10;;;;;;;;;;5127956;27;20263;-66
2024/04/06 10:43:39;;;;;;;0.20;0.10;;;;;;;;;;5129532;27;20200;-65
2024/04/06 10:46:05;;;;;;;0.20;0.10;;;;;;;;;;5127760;27;20179;-65
2024/04/06 10:48:31;;;;;;;0.20;0.10;;;;;;;;;;5126054;27;20184;-66
2024/04/06 10:50:59;;;;;;;0.20;0.10;;;;;;;;;;5132427;27;20611;-65
2024/04/06 10:53:28;;;;;;;0.20;0.10;;;;;;;;;;5129085;27;20196;-66
2024/04/06 10:55:54;;;;;;;0.20;0.10;;;;;;;;;;5140321;27;20207;-66
2024/04/06 10:58:20;;;;;;;0.20;0.10;;;;;;;;;;5129599;27;20204;-66
2024/04/06 11:00:46;;;;;;;0.20;0.10;;;;;;;;;;5129615;27;20251;-66
2024/04/06 11:03:12;;;;;;;0.20;0.10;;;;;;;;;;5129041;27;20281;-64
2024/04/06 11:05:39;;;;;;;0.20;0.10;;;;;;;;;;5125122;27;20204;-67
2024/04/06 11:08:05;;;;;;;0.20;0.10;;;;;;;;;;5129759;27;20715;-65
2024/04/06 11:10:32;;;;;;;0.20;0.10;;;;;;;;;;5109594;27;20636;-66
2024/04/06 11:12:58;;;;;;;0.20;0.10;;;;;;;;;;5109411;28;20216;-65
2024/04/06 11:15:26;;;;;;;0.20;0.10;;;;;;;;;;5124894;27;20803;-65
2024/04/06 11:17:53;;;;;;;0.20;0.10;;;;;;;;;;5126741;27;20221;-65
2024/04/06 11:20:19;;;;;;;0.20;0.10;;;;;;;;;;5127070;27;20189;-65
2024/04/06 11:22:45;;;;;;;0.20;0.00;;;;;;;;;;5126797;27;20204;-65
2024/04/06 11:25:15;;;;;;;0.20;0.10;;;;;;;;;;5123501;27;20232;-64
2024/04/06 11:27:46;;;;;;;0.20;0.10;;;;;;;;;;5129326;27;20205;-66
2024/04/06 11:30:12;;;;;;;0.20;0.10;;;;;;;;;;5129237;27;20173;-66
2024/04/06 11:32:39;;;;;;;0.20;0.10;;;;;;;;;;5128488;27;20197;-65
2024/04/06 11:35:05;;;;;;;0.20;0.10;;;;;;;;;;5127162;27;20204;-65
2024/04/06 11:37:32;;;;;;;0.20;0.10;;;;;;;;;;5117562;27;20177;-68
2024/04/06 11:39:58;;;;;;;0.20;0.10;;;;;;;;;;5125803;27;20177;-65
2024/04/06 11:42:24;;;;;;;0.20;0.10;;;;;;;;;;5108363;27;20193;-65
2024/04/06 11:44:50;;;;;;;0.20;0.10;;;;;;;;;;5128413;27;20629;-66
2024/04/06 11:47:16;;;;;;;0.20;0.10;;;;;;;;;;5124707;27;20242;-66
2024/04/06 11:49:42;;;;;;;0.20;0.10;;;;;;;;;;5110342;28;20173;-66
2024/04/06 11:52:08;;;;;;;0.20;0.10;;;;;;;;;;5128605;27;20566;-64
2024/04/06 11:54:34;;;;;;;0.20;0.10;;;;;;;;;;5125201;27;20309;-65
2024/04/06 11:57:01;;;;;;;0.20;0.10;;;;;;;;;;5131176;27;20651;-66
2024/04/06 11:59:27;;;;;;;0.20;0.10;;;;;;;;;;5135792;27;20181;-65
2024/04/06 12:01:53;;;;;;;0.20;0.10;;;;;;;;;;5130371;27;20201;-66
2024/04/06 12:04:19;;;;;;;0.20;0.10;;;;;;;;;;5131320;27;20445;-66
2024/04/06 12:06:45;;;;;;;0.20;0.10;;;;;;;;;;5130801;27;20236;-66
2024/04/06 12:09:12;;;;;;;0.20;0.10;;;;;;;;;;5125927;27;20656;-67
2024/04/06 12:11:38;;;;;;;0.20;0.10;;;;;;;;;;5129307;27;20174;-64
2024/04/06 12:14:04;;;;;;;0.20;0.10;;;;;;;;;;5132585;27;20860;-66
2024/04/06 12:16:30;;;;;;;0.20;0.10;;;;;;;;;;5129495;27;20211;-64
2024/04/06 12:18:56;;;;;;;0.20;0.10;;;;;;;;;;5127554;27;20173;-68
2024/04/06 12:21:23;;;;;;;0.20;0.10;;;;;;;;;;5130914;27;20287;-67
2024/04/06 12:23:49;;;;;;;0.20;0.10;;;;;;;;;;5131918;27;20249;-69
2024/04/06 12:26:15;;;;;;;0.20;0.10;;;;;;;;;;5131796;27;20632;-69
2024/04/06 12:28:41;;;;;;;0.20;0.10;;;;;;;;;;5129307;27;20177;-70
2024/04/06 12:31:07;;;;;;;0.20;0.10;;;;;;;;;;5132355;27;20176;-70
2024/04/06 12:33:33;;;;;;;0.20;0.10;;;;;;;;;;5135788;27;20189;-69
2024/04/06 12:36:00;;;;;;;0.20;0.10;;;;;;;;;;5132317;27;20192;-69
2024/04/06 12:38:26;;;;;;;0.20;0.10;;;;;;;;;;5134435;27;20178;-68
2024/04/06 12:40:52;;;;;;;0.20;0.10;;;;;;;;;;5131693;27;20256;-68
2024/04/06 12:43:18;;;;;;;0.20;0.10;;;;;;;;;;5132686;27;20189;-68
2024/04/06 12:45:44;;;;;;;0.20;0.10;;;;;;;;;;5129858;27;20196;-68
2024/04/06 12:48:10;;;;;;;0.20;0.10;;;;;;;;;;5127287;27;20181;-69
2024/04/06 12:50:36;;;;;;;0.20;0.10;;;;;;;;;;5122648;27;20276;-68
2024/04/06 12:53:02;;;;;;;0.20;0.10;;;;;;;;;;5129524;27;21039;-68
2024/04/06 12:55:28;;;;;;;0.20;0.00;;;;;;;;;;5120591;27;20261;-68
2024/04/06 12:57:54;;;;;;;0.20;0.10;;;;;;;;;;5133500;27;20180;-69
2024/04/06 13:00:21;;;;;;;0.20;0.10;;;;;;;;;;5143050;27;20188;-68
2024/04/06 13:02:48;;;;;;;0.20;0.10;;;;;;;;;;5137106;27;20223;-69
2024/04/06 13:05:14;;;;;;;0.20;0.10;;;;;;;;;;5129810;27;20250;-69
2024/04/06 13:07:40;;;;;;;0.20;0.10;;;;;;;;;;5128054;27;20645;-68
2024/04/06 13:10:07;;;;;;;0.20;0.10;;;;;;;;;;5139838;27;20207;-66
2024/04/06 13:12:33;;;;;;;0.20;0.10;;;;;;;;;;5129399;27;20204;-70
2024/04/06 13:15:00;;;;;;;0.20;0.10;;;;;;;;;;5130243;27;20851;-68
2024/04/06 13:17:26;;;;;;;0.20;0.10;;;;;;;;;;5128849;27;20188;-67
2024/04/06 13:19:53;;;;;;;0.20;0.10;;;;;;;;;;5127624;27;20189;-68
2024/04/06 13:22:19;;;;;;;0.20;0.10;;;;;;;;;;5125133;27;20236;-68
2024/04/06 13:24:45;;;;;;;0.20;0.10;;;;;;;;;;5129630;27;20239;-67
2024/04/06 13:27:11;;;;;;;0.20;0.10;;;;;;;;;;5128553;27;20179;-69
2024/04/06 13:29:37;;;;;;;0.20;0.10;;;;;;;;;;5128334;27;20211;-68
2024/04/06 13:32:07;;;;;;;0.20;0.10;;;;;;;;;;5129115;27;20197;-69
2024/04/06 13:34:34;;;;;;;0.20;0.10;;;;;;;;;;5129301;27;20181;-68
2024/04/06 13:37:00;;;;;;;0.20;0.10;;;;;;;;;;5129515;27;20203;-68
2024/04/06 13:39:26;;;;;;;0.20;0.10;;;;;;;;;;5129112;27;20323;-68
2024/04/06 13:41:52;;;;;;;0.20;0.10;;;;;;;;;;5128746;27;20192;-67
2024/04/06 13:44:19;;;;;;;0.20;0.10;;;;;;;;;;5110585;27;20618;-68
2024/04/06 13:46:45;;;;;;;0.20;0.10;;;;;;;;;;5124164;27;20165;-68
2024/04/06 13:49:11;;;;;;;0.20;0.10;;;;;;;;;;5129051;27;20550;-68
2024/04/06 13:51:38;;;;;;;0.20;0.10;;;;;;;;;;5127915;27;20188;-66
2024/04/06 13:54:05;;;;;;;0.20;0.10;;;;;;;;;;5126039;27;20187;-66
2024/04/06 13:56:32;;;;;;;0.20;0.10;;;;;;;;;;5125126;27;20184;-65
2024/04/06 13:58:58;;;;;;;0.20;0.10;;;;;;;;;;5123980;27;20249;-65
2024/04/06 14:01:24;;;;;;;0.20;0.10;;;;;;;;;;5128431;27;20600;-66
2024/04/06 14:03:50;;;;;;;0.20;0.10;;;;;;;;;;5134862;27;20257;-66
2024/04/06 14:06:16;;;;;;;0.20;0.10;;;;;;;;;;5135244;27;20184;-65
2024/04/06 14:08:42;;;;;;;0.20;0.10;;;;;;;;;;5125193;27;20293;-66
2024/04/06 14:11:10;;;;;;;0.20;0.10;;;;;;;;;;5125775;27;20180;-65
2024/04/06 14:13:39;;;;;;;0.20;0.10;;;;;;;;;;5134474;27;20200;-66
2024/04/06 14:16:05;;;;;;;0.20;0.10;;;;;;;;;;5126340;27;20306;-65
2024/04/06 14:18:31;;;;;;;0.20;0.10;;;;;;;;;;5126308;27;20184;-65
2024/04/06 14:20:57;;;;;;;0.20;0.10;;;;;;;;;;5126367;27;20171;-68
2024/04/06 14:23:23;;;;;;;0.20;0.10;;;;;;;;;;5125195;27;20217;-68
2024/04/06 14:25:50;;;;;;;0.20;0.10;;;;;;;;;;5129619;27;20172;-69
2024/04/06 14:28:16;;;;;;;0.20;0.10;;;;;;;;;;5129509;27;20175;-68
2024/04/06 14:30:42;;;;;;;0.20;0.10;;;;;;;;;;5129681;27;20173;-68
2024/04/06 14:33:09;;;;;;;0.20;0.10;;;;;;;;;;5130054;27;20219;-66
2024/04/06 14:35:35;;;;;;;0.20;0.10;;;;;;;;;;5128724;27;20177;-66
2024/04/06 14:38:01;;;;;;;0.20;0.10;;;;;;;;;;5125096;27;20189;-69